createdAt,value
2023-10-26T00:02:13.465Z,1.90
2023-10-26T00:04:40.181Z,1.20
2023-10-26T00:07:07.057Z,1.10
2023-10-26T00:09:33.767Z,1.30
2023-10-26T00:12:00.678Z,0.90
2023-10-26T00:14:27.316Z,1.10
2023-10-26T00:16:54.148Z,1.20
2023-10-26T00:19:21.349Z,1.30
2023-10-26T00:21:48.368Z,1.20
2023-10-26T00:24:15.672Z,1.20
2023-10-26T00:26:42.499Z,1.20
2023-10-26T00:29:09.367Z,1.10
2023-10-26T00:31:36.020Z,1.30
2023-10-26T00:34:02.667Z,1.40
2023-10-26T00:36:30.192Z,1.30
2023-10-26T00:38:57.087Z,1.60
2023-10-26T00:41:23.808Z,0.90
2023-10-26T00:43:50.609Z,0.90
2023-10-26T00:46:17.772Z,1.70
2023-10-26T00:48:44.853Z,1.90
2023-10-26T00:51:12.043Z,1.50
2023-10-26T00:53:41.129Z,1.20
2023-10-26T00:56:09.803Z,1.20
2023-10-26T00:58:36.673Z,1.20
2023-10-26T01:01:04.288Z,1.30
2023-10-26T01:03:32.832Z,1.40
2023-10-26T01:05:59.772Z,1.30
2023-10-26T01:08:27.026Z,1.10
2023-10-26T01:10:57.389Z,1.40
2023-10-26T01:13:25.250Z,1.20
2023-10-26T01:15:51.875Z,0.80
2023-10-26T01:18:18.770Z,0.90
2023-10-26T01:20:45.774Z,1.20
2023-10-26T01:23:12.746Z,1.60
2023-10-26T01:25:40.104Z,1.10
2023-10-26T01:28:07.760Z,1.10
2023-10-26T01:30:35.520Z,1.10
2023-10-26T01:33:02.443Z,0.80
2023-10-26T01:35:38.697Z,1.30
2023-10-26T01:38:05.361Z,1.20
2023-10-26T01:40:33.071Z,1.80
2023-10-26T01:42:59.947Z,1.50
2023-10-26T01:45:26.657Z,1.70
2023-10-26T01:47:54.892Z,1.20
2023-10-26T01:50:21.773Z,1.30
2023-10-26T01:52:48.445Z,1.20
2023-10-26T01:55:16.282Z,1.10
2023-10-26T01:57:44.552Z,1.00
2023-10-26T02:00:12.197Z,1.30
2023-10-26T02:02:39.202Z,1.20
2023-10-26T02:05:06.239Z,1.10
2023-10-26T02:07:34.332Z,1.30
2023-10-26T02:10:01.050Z,1.20
2023-10-26T02:12:27.873Z,1.80
2023-10-26T02:14:54.562Z,1.60
2023-10-26T02:17:21.340Z,1.10
2023-10-26T02:19:48.081Z,1.30
2023-10-26T02:22:14.779Z,1.10
2023-10-26T02:24:42.214Z,1.30
2023-10-26T02:27:09.108Z,1.20
2023-10-26T02:29:36.160Z,1.30
2023-10-26T02:32:03.258Z,1.50
2023-10-26T02:34:29.925Z,1.10
2023-10-26T02:36:57.960Z,1.10
2023-10-26T02:39:25.548Z,1.10
2023-10-26T02:41:52.706Z,1.50
2023-10-26T02:44:19.385Z,2.10
2023-10-26T02:46:46.036Z,1.60
2023-10-26T02:49:12.820Z,1.40
2023-10-26T02:51:40.754Z,0.90
2023-10-26T02:54:07.650Z,0.80
2023-10-26T02:56:34.400Z,1.00
2023-10-26T02:59:01.185Z,1.00
2023-10-26T03:01:35.226Z,1.10
2023-10-26T03:04:03.074Z,1.20
2023-10-26T03:06:37.292Z,1.30
2023-10-26T03:09:05.468Z,1.50
2023-10-26T03:11:32.708Z,1.20
2023-10-26T03:13:59.359Z,1.50
2023-10-26T03:16:26.181Z,1.00
2023-10-26T03:18:53.182Z,1.20
2023-10-26T03:21:21.182Z,1.20
2023-10-26T03:23:53.943Z,1.60
2023-10-26T03:26:21.421Z,1.30
2023-10-26T03:28:52.236Z,1.60
2023-10-26T03:31:19.456Z,1.60
2023-10-26T03:33:46.441Z,1.90
2023-10-26T03:36:20.593Z,1.60
2023-10-26T03:38:47.862Z,1.30
2023-10-26T03:41:14.671Z,1.60
2023-10-26T03:43:41.456Z,1.80
2023-10-26T03:46:08.577Z,1.50
2023-10-26T03:48:36.363Z,1.40
2023-10-26T03:51:03.587Z,1.60
2023-10-26T03:53:30.796Z,1.60
2023-10-26T03:55:58.439Z,1.40
2023-10-26T03:58:26.020Z,1.60
2023-10-26T04:00:52.764Z,1.50
2023-10-26T04:03:19.702Z,1.30
2023-10-26T04:05:46.650Z,1.20
2023-10-26T04:08:13.579Z,2.50
2023-10-26T04:10:42.948Z,6.10
2023-10-26T04:13:09.857Z,3.30
2023-10-26T04:15:36.631Z,2.10
2023-10-26T04:18:05.037Z,2.20
2023-10-26T04:20:32.342Z,2.10
2023-10-26T04:22:59.028Z,1.80
2023-10-26T04:25:42.213Z,1.40
2023-10-26T04:28:16.463Z,1.00
2023-10-26T04:30:45.467Z,1.40
2023-10-26T04:33:12.372Z,1.50
2023-10-26T04:35:43.693Z,1.90
2023-10-26T04:38:10.613Z,2.10
2023-10-26T04:40:39.546Z,2.20
2023-10-26T04:43:06.963Z,1.50
2023-10-26T04:45:34.707Z,0.90
2023-10-26T04:48:01.760Z,1.00
2023-10-26T04:50:30.724Z,1.70
2023-10-26T04:53:03.012Z,3.20
2023-10-26T04:55:35.897Z,1.60
2023-10-26T04:58:03.738Z,1.60
2023-10-26T05:00:31.208Z,2.70
2023-10-26T05:02:58.412Z,5.70
2023-10-26T05:05:25.802Z,1.90
2023-10-26T05:07:53.152Z,1.60
2023-10-26T05:10:20.822Z,2.10
2023-10-26T05:12:47.597Z,1.60
2023-10-26T05:15:14.564Z,1.90
2023-10-26T05:17:46.500Z,1.50
2023-10-26T05:20:13.742Z,1.40
2023-10-26T05:22:40.595Z,1.30
2023-10-26T05:25:08.763Z,1.70
2023-10-26T05:27:37.113Z,1.70
2023-10-26T05:30:06.270Z,1.90
2023-10-26T05:32:33.649Z,1.60
2023-10-26T05:35:00.551Z,1.80
2023-10-26T05:37:27.377Z,1.80
2023-10-26T05:39:56.853Z,2.00
2023-10-26T05:42:24.211Z,1.90
2023-10-26T05:44:51.589Z,1.50
2023-10-26T05:47:21.997Z,1.60
2023-10-26T05:49:51.795Z,2.50
2023-10-26T05:52:19.259Z,1.50
2023-10-26T05:54:47.992Z,1.60
2023-10-26T05:57:16.268Z,1.70
2023-10-26T05:59:43.654Z,2.40
2023-10-26T06:02:11.139Z,3.40
2023-10-26T06:04:38.435Z,3.60
2023-10-26T06:07:05.318Z,4.30
2023-10-26T06:09:32.206Z,5.40
2023-10-26T06:11:59.273Z,5.60
2023-10-26T06:14:26.265Z,3.80
2023-10-26T06:16:53.263Z,2.80
2023-10-26T06:19:22.585Z,3.10
2023-10-26T06:21:49.471Z,2.50
2023-10-26T06:24:16.309Z,2.90
2023-10-26T06:26:43.114Z,2.40
2023-10-26T06:29:09.812Z,2.20
2023-10-26T06:31:36.921Z,2.80
2023-10-26T06:34:04.138Z,2.60
2023-10-26T06:36:31.118Z,2.20
2023-10-26T06:39:00.155Z,3.00
2023-10-26T06:41:27.238Z,2.10
2023-10-26T06:43:54.397Z,2.20
2023-10-26T06:46:21.129Z,2.00
2023-10-26T06:48:48.742Z,2.10
2023-10-26T06:51:16.032Z,2.50
2023-10-26T06:53:42.901Z,4.20
2023-10-26T06:56:13.356Z,3.10
2023-10-26T06:58:42.698Z,2.10
2023-10-26T07:01:19.612Z,1.70
2023-10-26T07:03:50.176Z,1.70
2023-10-26T07:06:20.457Z,1.60
2023-10-26T07:08:48.969Z,1.90
2023-10-26T07:11:21.058Z,1.70
2023-10-26T07:13:51.484Z,1.80
2023-10-26T07:16:18.852Z,1.90
2023-10-26T07:18:52.196Z,1.50
2023-10-26T07:21:20.219Z,1.50
2023-10-26T07:23:47.401Z,1.40
2023-10-26T07:26:18.709Z,1.80
2023-10-26T07:28:46.579Z,1.40
2023-10-26T07:31:20.624Z,1.10
2023-10-26T07:33:49.875Z,1.20
2023-10-26T07:36:17.617Z,1.20
2023-10-26T07:39:45.879Z,1.50
2023-10-26T07:42:06.985Z,1.60
2023-10-26T07:44:38.484Z,1.70
2023-10-26T07:47:46.289Z,0.90
2023-10-26T07:50:21.963Z,1.10
2023-10-26T07:52:56.794Z,1.40
2023-10-26T07:55:58.534Z,1.20
2023-10-26T07:58:28.236Z,1.30
2023-10-26T08:00:59.285Z,1.40
2023-10-26T08:03:28.561Z,1.70
2023-10-26T08:06:19.009Z,1.70
2023-10-26T08:08:46.515Z,2.30
2023-10-26T08:11:17.351Z,0.90
2023-10-26T08:13:45.645Z,1.00
2023-10-26T08:16:43.886Z,1.30
2023-10-26T08:19:00.137Z,1.00
2023-10-26T08:21:27.957Z,0.80
2023-10-26T08:23:55.212Z,1.10
2023-10-26T08:26:22.614Z,1.20
2023-10-26T08:29:16.186Z,0.90
2023-10-26T08:32:04.677Z,1.20
2023-10-26T08:34:45.564Z,1.10
2023-10-26T08:37:20.196Z,1.30
2023-10-26T08:39:50.896Z,1.00
2023-10-26T08:42:18.989Z,1.60
2023-10-26T08:44:45.935Z,1.10
2023-10-26T08:47:17.816Z,1.30
2023-10-26T08:49:50.313Z,1.10
2023-10-26T08:52:23.214Z,1.90
2023-10-26T08:54:51.607Z,1.50
2023-10-26T08:57:18.302Z,1.30
2023-10-26T08:59:45.365Z,1.60
2023-10-26T09:02:12.271Z,2.30
2023-10-26T09:05:03.334Z,1.80
2023-10-26T09:07:30.645Z,3.50
2023-10-26T09:09:58.212Z,2.90
2023-10-26T09:12:25.435Z,2.30
2023-10-26T09:15:03.287Z,9.90
2023-10-26T09:17:31.735Z,3.50
2023-10-26T09:19:59.245Z,4.80
2023-10-26T09:22:39.131Z,7.00
2023-10-26T09:25:13.326Z,3.70
2023-10-26T09:27:41.651Z,4.00
2023-10-26T09:30:29.087Z,2.20
2023-10-26T09:33:00.183Z,1.60
2023-10-26T09:35:34.537Z,2.00
2023-10-26T09:40:28.803Z,2.30
2023-10-26T09:42:59.312Z,1.90
2023-10-26T09:45:26.976Z,1.80
2023-10-26T09:47:54.324Z,2.10
2023-10-26T09:50:21.714Z,1.50
2023-10-26T09:52:49.653Z,1.20
2023-10-26T09:55:17.514Z,1.40
2023-10-26T09:57:58.794Z,1.30
2023-10-26T10:00:32.467Z,1.10
2023-10-26T10:03:20.305Z,2.20
2023-10-26T10:05:48.260Z,2.50
2023-10-26T10:08:57.870Z,2.30
2023-10-26T10:11:26.572Z,3.80
2023-10-26T10:13:53.866Z,2.60
2023-10-26T10:16:36.705Z,1.90
2023-10-26T10:19:26.450Z,3.00
2023-10-26T10:21:53.476Z,4.60
2023-10-26T10:24:39.505Z,3.10
2023-10-26T10:27:16.493Z,2.60
2023-10-26T10:29:43.629Z,2.20
2023-10-26T10:32:47.910Z,1.90
2023-10-26T10:35:21.321Z,2.00
2023-10-26T10:38:09.894Z,2.10
2023-10-26T10:40:38.927Z,2.00
2023-10-26T10:43:06.132Z,2.10
2023-10-26T10:45:33.006Z,2.30
2023-10-26T10:48:05.451Z,1.80
2023-10-26T10:50:32.226Z,2.10
2023-10-26T10:52:58.926Z,2.70
2023-10-26T10:55:27.286Z,2.80
2023-10-26T10:57:56.482Z,2.30
2023-10-26T11:00:25.233Z,3.10
2023-10-26T11:02:57.320Z,3.10
2023-10-26T11:05:40.706Z,2.70
2023-10-26T11:08:08.718Z,3.00
2023-10-26T11:10:36.177Z,2.60
2023-10-26T11:13:03.624Z,3.00
2023-10-26T11:15:39.656Z,2.30
2023-10-26T11:18:08.353Z,2.40
2023-10-26T11:20:42.626Z,2.10
2023-10-26T11:23:11.568Z,2.10
2023-10-26T11:25:39.022Z,2.50
2023-10-26T11:28:07.719Z,2.70
2023-10-26T11:30:48.995Z,2.10
2023-10-26T11:33:37.803Z,1.80
2023-10-26T11:36:11.841Z,2.20
2023-10-26T11:38:51.637Z,2.10
2023-10-26T11:41:25.889Z,2.30
2023-10-26T11:43:52.991Z,2.10
2023-10-26T11:46:36.008Z,1.80
2023-10-26T11:49:04.631Z,1.70
2023-10-26T11:51:32.507Z,2.80
2023-10-26T11:54:12.653Z,2.30
2023-10-26T11:56:39.491Z,2.80
2023-10-26T11:59:06.220Z,3.30
2023-10-26T12:01:33.023Z,2.20
2023-10-26T12:04:00.243Z,2.10
2023-10-26T12:06:30.322Z,2.70
2023-10-26T12:08:57.090Z,1.80
2023-10-26T12:11:24.230Z,1.80
2023-10-26T12:13:51.020Z,1.50
2023-10-26T12:16:17.937Z,1.60
2023-10-26T12:18:44.610Z,1.90
2023-10-26T12:21:11.309Z,2.10
2023-10-26T12:23:37.998Z,1.50
2023-10-26T12:26:04.773Z,1.50
2023-10-26T12:28:31.493Z,1.60
2023-10-26T12:30:58.347Z,2.80
2023-10-26T12:33:25.670Z,1.60
2023-10-26T12:35:52.489Z,1.70
2023-10-26T12:38:20.320Z,1.60
2023-10-26T12:40:48.680Z,1.80
2023-10-26T12:43:15.534Z,2.00
2023-10-26T12:45:42.220Z,2.50
2023-10-26T12:48:08.971Z,2.30
2023-10-26T12:50:35.752Z,2.00
2023-10-26T12:53:02.561Z,1.80
2023-10-26T12:55:30.583Z,1.70
2023-10-26T12:57:59.139Z,1.60
2023-10-26T13:00:26.755Z,1.40
2023-10-26T13:02:53.403Z,1.40
2023-10-26T13:05:20.136Z,1.50
2023-10-26T13:07:46.876Z,1.80
2023-10-26T13:10:13.863Z,1.80
2023-10-26T13:12:40.790Z,1.70
2023-10-26T13:15:07.798Z,1.80
2023-10-26T13:17:34.713Z,1.70
2023-10-26T13:20:01.681Z,1.70
2023-10-26T13:22:28.449Z,2.10
2023-10-26T13:24:55.277Z,2.50
2023-10-26T13:27:22.158Z,2.20
2023-10-26T13:29:49.724Z,2.00
2023-10-26T13:32:16.451Z,2.20
2023-10-26T13:34:43.465Z,2.60
2023-10-26T13:37:10.521Z,2.70
2023-10-26T13:39:38.059Z,3.30
2023-10-26T13:42:05.256Z,2.90
2023-10-26T13:44:32.088Z,2.50
2023-10-26T13:46:59.113Z,2.50
2023-10-26T13:49:25.826Z,2.30
2023-10-26T13:51:52.705Z,2.60
2023-10-26T13:54:19.646Z,3.80
2023-10-26T13:56:46.393Z,41.60
2023-10-26T13:59:13.091Z,31.20
2023-10-26T14:01:40.084Z,26.60
2023-10-26T14:04:07.068Z,16.60
2023-10-26T14:06:33.877Z,18.20
2023-10-26T14:09:01.157Z,24.20
2023-10-26T14:11:30.421Z,20.10
2023-10-26T14:13:57.987Z,12.60
2023-10-26T14:16:25.573Z,11.60
2023-10-26T14:18:52.352Z,9.10
2023-10-26T14:21:19.156Z,12.20
2023-10-26T14:23:45.894Z,11.40
2023-10-26T14:26:12.738Z,10.00
2023-10-26T14:28:39.449Z,5.60
2023-10-26T14:31:06.307Z,4.00
2023-10-26T14:33:33.271Z,4.70
2023-10-26T14:36:00.115Z,4.40
2023-10-26T14:38:26.982Z,2.60
2023-10-26T14:40:58.085Z,3.10
2023-10-26T14:43:26.217Z,5.00
2023-10-26T14:45:53.169Z,6.40
2023-10-26T14:48:20.676Z,7.40
2023-10-26T14:50:47.521Z,8.00
2023-10-26T14:53:15.077Z,6.90
2023-10-26T14:55:41.938Z,20.40
2023-10-26T14:58:08.774Z,18.60
2023-10-26T15:00:37.885Z,14.00
2023-10-26T15:03:05.816Z,9.90
2023-10-26T15:05:36.634Z,11.40
2023-10-26T15:08:04.152Z,16.00
2023-10-26T15:10:34.943Z,17.30
2023-10-26T15:13:05.063Z,14.40
2023-10-26T15:15:31.887Z,22.80
2023-10-26T15:17:58.709Z,21.40
2023-10-26T15:20:25.574Z,16.30
2023-10-26T15:22:52.228Z,18.30
2023-10-26T15:25:19.028Z,15.10
2023-10-26T15:27:45.746Z,12.50
2023-10-26T15:30:12.962Z,10.70
2023-10-26T15:32:39.757Z,10.80
2023-10-26T15:35:06.920Z,11.30
2023-10-26T15:37:33.680Z,11.60
2023-10-26T15:40:00.380Z,12.30
2023-10-26T15:42:27.566Z,11.30
2023-10-26T15:44:55.251Z,7.60
2023-10-26T15:47:22.383Z,5.60
2023-10-26T15:49:49.862Z,5.70
2023-10-26T15:52:20.039Z,5.60
2023-10-26T15:54:47.165Z,5.00
2023-10-26T15:57:15.380Z,4.60
2023-10-26T15:59:42.118Z,5.90
2023-10-26T16:02:08.901Z,7.90
2023-10-26T16:04:35.873Z,9.10
2023-10-26T16:07:02.814Z,15.50
2023-10-26T16:09:31.118Z,15.70
2023-10-26T16:11:58.711Z,18.80
2023-10-26T16:14:27.527Z,17.30
2023-10-26T16:16:54.409Z,21.90
2023-10-26T16:19:22.392Z,38.00
2023-10-26T16:21:49.119Z,35.50
2023-10-26T16:24:18.408Z,28.60
2023-10-26T16:26:45.168Z,11.70
2023-10-26T16:29:11.927Z,5.60
2023-10-26T16:31:38.727Z,2.70
2023-10-26T16:34:05.867Z,11.90
2023-10-26T16:36:35.790Z,2.90
2023-10-26T16:39:03.384Z,3.30
2023-10-26T16:41:30.053Z,9.80
2023-10-26T16:44:00.341Z,11.00
2023-10-26T16:46:27.191Z,8.70
2023-10-26T16:48:55.758Z,7.40
2023-10-26T16:51:22.716Z,6.40
2023-10-26T16:53:49.602Z,8.00
2023-10-26T16:56:16.420Z,12.30
2023-10-26T16:58:43.088Z,14.80
2023-10-26T17:01:10.873Z,31.70
2023-10-26T17:03:38.844Z,13.00
2023-10-26T17:06:05.694Z,15.30
2023-10-26T17:08:32.524Z,18.10
2023-10-26T17:10:59.481Z,19.10
2023-10-26T17:13:27.683Z,20.60
2023-10-26T17:15:54.834Z,26.80
2023-10-26T17:18:26.666Z,30.40
2023-10-26T17:20:57.730Z,32.10
2023-10-26T17:23:24.955Z,18.90
2023-10-26T17:25:51.718Z,20.00
2023-10-26T17:28:18.695Z,18.50
2023-10-26T17:30:45.579Z,19.60
2023-10-26T17:33:14.680Z,18.60
2023-10-26T17:35:43.890Z,23.00
2023-10-26T17:38:11.007Z,25.90
2023-10-26T17:40:43.478Z,18.90
2023-10-26T17:43:13.018Z,16.80
2023-10-26T17:45:39.931Z,20.80
2023-10-26T17:48:07.289Z,15.50
2023-10-26T17:50:43.225Z,14.40
2023-10-26T17:53:10.271Z,16.80
2023-10-26T17:55:37.183Z,14.60
2023-10-26T17:58:07.201Z,15.60
2023-10-26T18:00:33.992Z,14.40
2023-10-26T18:03:03.793Z,15.40
2023-10-26T18:05:30.713Z,22.40
2023-10-26T18:07:57.478Z,23.60
2023-10-26T18:10:24.322Z,30.20
2023-10-26T18:12:53.556Z,29.50
2023-10-26T18:15:20.324Z,31.40
2023-10-26T18:17:47.880Z,37.60
2023-10-26T18:20:17.635Z,38.00
2023-10-26T18:22:45.513Z,37.90
2023-10-26T18:25:12.281Z,30.50
2023-10-26T18:27:46.328Z,24.20
2023-10-26T18:30:13.825Z,22.10
2023-10-26T18:32:43.434Z,16.90
2023-10-26T18:35:13.014Z,15.20
2023-10-26T18:37:44.125Z,22.50
2023-10-26T18:40:11.239Z,19.30
2023-10-26T18:42:41.023Z,17.10
2023-10-26T18:45:08.086Z,16.20
2023-10-26T18:47:34.788Z,17.40
2023-10-26T18:50:01.950Z,16.00
2023-10-26T18:52:29.302Z,17.00
2023-10-26T18:55:01.356Z,17.10
2023-10-26T18:57:28.150Z,14.10
2023-10-26T18:59:54.864Z,19.20
2023-10-26T19:02:21.631Z,17.10
2023-10-26T19:04:49.162Z,17.90
2023-10-26T19:07:15.926Z,17.80
2023-10-26T19:09:44.233Z,31.50
2023-10-26T19:12:12.286Z,26.60
2023-10-26T19:14:42.037Z,19.80
2023-10-26T19:17:10.050Z,24.00
2023-10-26T19:19:37.239Z,25.90
2023-10-26T19:22:04.165Z,27.80
2023-10-26T19:24:33.163Z,31.60
2023-10-26T19:26:59.979Z,18.20
2023-10-26T19:29:26.695Z,29.20
2023-10-26T19:31:53.428Z,27.60
2023-10-26T19:34:20.393Z,28.80
2023-10-26T19:36:47.236Z,28.30
2023-10-26T19:39:14.003Z,26.40
2023-10-26T19:41:40.707Z,24.60
2023-10-26T19:44:09.978Z,25.30
2023-10-26T19:46:39.640Z,23.30
2023-10-26T19:49:07.490Z,17.00
2023-10-26T19:51:34.440Z,21.00
2023-10-26T19:54:01.121Z,26.50
2023-10-26T19:56:27.872Z,27.90
2023-10-26T19:58:54.611Z,24.10
2023-10-26T20:01:21.533Z,18.30
2023-10-26T20:03:48.696Z,19.70
2023-10-26T20:06:17.896Z,14.90
2023-10-26T20:08:44.655Z,11.00
2023-10-26T20:11:11.348Z,10.40
2023-10-26T20:13:38.003Z,10.90
2023-10-26T20:16:07.536Z,16.10
2023-10-26T20:18:41.196Z,11.40
2023-10-26T20:21:09.676Z,9.00
2023-10-26T20:23:37.468Z,9.40
2023-10-26T20:26:06.957Z,4.50
2023-10-26T20:28:34.887Z,7.90
2023-10-26T20:31:01.677Z,8.20
2023-10-26T20:33:28.593Z,9.60
2023-10-26T20:35:55.510Z,10.00
2023-10-26T20:38:22.462Z,6.10
2023-10-26T20:40:49.710Z,4.80
2023-10-26T20:43:16.503Z,4.50
2023-10-26T20:45:43.378Z,4.50
2023-10-26T20:48:10.191Z,5.10
2023-10-26T20:50:37.033Z,4.20
2023-10-26T20:53:04.907Z,4.20
2023-10-26T20:55:31.632Z,5.40
2023-10-26T20:57:58.495Z,4.80
2023-10-26T21:00:25.329Z,6.30
2023-10-26T21:02:52.227Z,4.90
2023-10-26T21:05:18.967Z,4.80
2023-10-26T21:07:45.673Z,5.20
2023-10-26T21:10:12.707Z,4.90
2023-10-26T21:12:39.557Z,5.90
2023-10-26T21:15:07.368Z,5.50
2023-10-26T21:17:36.727Z,5.60
2023-10-26T21:20:07.403Z,6.00
2023-10-26T21:22:34.652Z,5.70
2023-10-26T21:25:05.153Z,5.10
2023-10-26T21:27:32.109Z,6.70
2023-10-26T21:29:58.775Z,7.90
2023-10-26T21:32:25.423Z,8.50
2023-10-26T21:34:52.196Z,8.00
2023-10-26T21:37:18.962Z,8.00
2023-10-26T21:39:46.080Z,9.20
2023-10-26T21:42:13.014Z,9.20
2023-10-26T21:44:39.732Z,5.10
2023-10-26T21:47:06.548Z,6.60
2023-10-26T21:49:33.236Z,6.20
2023-10-26T21:52:00.384Z,8.70
2023-10-26T21:54:27.081Z,5.50
2023-10-26T21:56:53.795Z,6.20
2023-10-26T21:59:20.518Z,2.50
2023-10-26T22:01:47.759Z,3.20
2023-10-26T22:06:44.760Z,5.80
2023-10-26T22:09:11.483Z,6.20
2023-10-26T22:11:38.759Z,7.40
2023-10-26T22:14:06.584Z,6.30
2023-10-26T22:16:33.518Z,6.70
2023-10-26T22:19:00.391Z,3.30
2023-10-26T22:21:27.112Z,3.90
2023-10-26T22:23:54.409Z,4.80
2023-10-26T22:26:21.124Z,2.90
2023-10-26T22:28:47.904Z,3.80
2023-10-26T22:31:14.579Z,2.00
2023-10-26T22:33:41.323Z,1.00
2023-10-26T22:36:08.608Z,1.30
2023-10-26T22:38:36.533Z,1.10
2023-10-26T22:41:08.472Z,1.30
2023-10-26T22:43:35.256Z,1.70
2023-10-26T22:46:01.979Z,1.60
2023-10-26T22:48:28.765Z,1.60
2023-10-26T22:50:59.269Z,2.10
2023-10-26T22:53:26.867Z,2.60
2023-10-26T22:55:53.623Z,3.00
2023-10-26T22:58:20.622Z,2.90
2023-10-26T23:00:47.665Z,2.10
2023-10-26T23:03:14.455Z,2.30
2023-10-26T23:05:41.456Z,1.60
2023-10-26T23:08:09.387Z,2.30
2023-10-26T23:10:36.164Z,3.50
2023-10-26T23:13:03.471Z,2.60
2023-10-26T23:15:30.278Z,2.50
2023-10-26T23:17:57.209Z,2.20
2023-10-26T23:20:24.985Z,1.70
2023-10-26T23:22:51.823Z,1.90
2023-10-26T23:25:18.565Z,2.20
2023-10-26T23:27:45.344Z,1.40
2023-10-26T23:30:12.424Z,2.10
2023-10-26T23:32:39.083Z,2.50
2023-10-26T23:35:06.478Z,2.30
2023-10-26T23:37:33.241Z,1.70
2023-10-26T23:40:00.240Z,1.30
2023-10-26T23:42:27.062Z,1.70
2023-10-26T23:44:53.763Z,1.50
2023-10-26T23:47:20.446Z,1.80
2023-10-26T23:49:49.044Z,1.70
2023-10-26T23:52:15.842Z,1.70
2023-10-26T23:54:42.648Z,1.90
2023-10-26T23:57:09.593Z,2.20
2023-10-26T23:59:36.385Z,1.40
